Time;durP1;ratioP1;P1;durP2;ratioP2;P2;SDS_P1;SDS_P2;PMS_P1;PMS_P2;Temp;Humidity;BMP_temperature;BMP_pressure;BME280_temperature;BME280_humidity;BME280_pressure;Samples;Min_cycle;Max_cycle;Signal;HPM_P1;HPM_P2
2023/10/01 00:00:55;;;;;;;1.03;0.80;;;;;;;14.30;89.46;101873.94;4865432;29;20438;-69
2023/10/01 00:03:23;;;;;;;1.77;0.73;;;;;;;14.25;90.11;101876.41;4873297;29;21072;-69
2023/10/01 00:05:54;;;;;;;0.90;0.60;;;;;;;14.27;89.93;101876.22;4863333;29;20853;-69
2023/10/01 00:08:25;;;;;;;0.90;0.80;;;;;;;14.26;89.82;101872.66;4864193;29;20433;-68
2023/10/01 00:10:54;;;;;;;0.90;0.80;;;;;;;14.28;89.61;101876.00;4866235;29;20483;-68
2023/10/01 00:13:26;;;;;;;1.00;0.90;;;;;;;14.26;89.94;101864.50;4863181;29;20439;-68
2023/10/01 00:15:55;;;;;;;0.80;0.40;;;;;;;14.34;89.29;101861.59;4867355;29;20445;-68
2023/10/01 00:18:25;;;;;;;2.97;1.37;;;;;;;14.35;89.30;101860.56;4869309;29;20415;-68
2023/10/01 00:20:54;;;;;;;0.90;0.67;;;;;;;14.31;89.32;101859.28;4870621;29;20445;-68
2023/10/01 00:23:22;;;;;;;1.03;0.93;;;;;;;14.38;88.56;101863.97;4863504;29;20468;-68
2023/10/01 00:25:51;;;;;;;0.80;0.60;;;;;;;14.31;89.11;101862.00;4869500;29;20448;-69
2023/10/01 00:28:20;;;;;;;0.80;0.40;;;;;;;14.31;89.04;101856.56;4862168;29;20420;-68
2023/10/01 00:30:50;;;;;;;0.80;0.40;;;;;;;14.37;88.62;101862.25;4874586;29;20524;-69
2023/10/01 00:33:19;;;;;;;7.67;1.77;;;;;;;14.37;88.75;101862.25;4852428;29;20414;-69
2023/10/01 00:35:48;;;;;;;0.80;0.40;;;;;;;14.26;89.09;101861.78;4878238;29;20504;-68
2023/10/01 00:38:17;;;;;;;0.80;0.50;;;;;;;14.22;89.90;101855.06;4864878;29;20430;-68
2023/10/01 00:40:45;;;;;;;0.80;0.50;;;;;;;14.27;89.56;101846.28;4865747;29;20454;-68
2023/10/01 00:43:14;;;;;;;0.90;0.60;;;;;;;14.42;88.49;101846.16;4863366;29;20442;-68
2023/10/01 00:45:44;;;;;;;0.80;0.50;;;;;;;14.49;87.03;101855.16;4872413;29;20433;-69
2023/10/01 00:48:15;;;;;;;0.90;0.50;;;;;;;14.53;86.88;101848.25;4870715;29;20430;-68
2023/10/01 00:50:44;;;;;;;0.80;0.50;;;;;;;14.49;86.46;101856.00;4859685;29;20444;-69
2023/10/01 00:53:13;;;;;;;0.80;0.50;;;;;;;14.49;86.80;101853.28;4870986;29;20411;-68
2023/10/01 00:55:42;;;;;;;0.80;0.43;;;;;;;14.48;87.19;101842.59;4864111;29;20454;-68
2023/10/01 00:58:11;;;;;;;0.90;0.50;;;;;;;14.40;87.15;101846.34;4875653;29;20436;-68
2023/10/01 01:00:42;;;;;;;1.47;0.70;;;;;;;14.55;86.41;101849.75;4868950;29;20597;-67
2023/10/01 01:03:18;;;;;;;1.10;0.80;;;;;;;14.57;86.34;101835.94;4871984;29;20881;-68
2023/10/01 01:06:12;;;;;;;0.80;0.40;;;;;;;14.57;85.59;101842.19;4870247;29;20430;-67
2023/10/01 01:08:52;;;;;;;0.80;0.40;;;;;;;14.54;85.79;101842.63;4869797;29;20775;-68
2023/10/01 01:11:22;;;;;;;0.80;0.40;;;;;;;14.53;85.91;101830.03;4863759;29;20837;-70
2023/10/01 01:13:53;;;;;;;0.80;0.40;;;;;;;14.52;86.17;101822.94;4870404;29;20412;-68
2023/10/01 01:16:22;;;;;;;0.80;0.50;;;;;;;14.56;86.05;101829.66;4874035;29;20444;-67
2023/10/01 01:18:51;;;;;;;0.80;0.60;;;;;;;14.62;86.68;101825.28;4865855;29;20990;-68
2023/10/01 01:21:23;;;;;;;1.10;0.97;;;;;;;14.51;87.22;101812.25;4869409;29;20458;-69
2023/10/01 01:23:53;;;;;;;0.80;0.40;;;;;;;14.60;86.79;101805.56;4861967;29;20469;-68
2023/10/01 01:26:22;;;;;;;0.90;0.67;;;;;;;14.59;86.08;101807.44;4864856;29;20418;-69
2023/10/01 01:28:51;;;;;;;0.80;0.40;;;;;;;14.51;86.96;101809.53;4861041;29;20479;-67
2023/10/01 01:31:26;;;;;;;0.80;0.57;;;;;;;14.63;85.83;101824.19;4864131;29;20811;-69
2023/10/01 01:33:56;;;;;;;0.90;0.60;;;;;;;14.50;86.61;101808.69;4862910;29;20854;-68
2023/10/01 01:36:30;;;;;;;0.80;0.47;;;;;;;14.42;87.32;101810.75;4868899;29;20449;-68
2023/10/01 01:39:12;;;;;;;0.80;0.50;;;;;;;14.47;87.61;101813.69;4861157;29;20440;-68
2023/10/01 01:41:43;;;;;;;0.80;0.40;;;;;;;14.58;86.74;101819.38;4864293;29;20434;-68
2023/10/01 01:44:14;;;;;;;0.80;0.50;;;;;;;14.56;86.93;101813.31;4868666;29;20480;-67
2023/10/01 01:46:48;;;;;;;0.80;0.40;;;;;;;14.71;87.04;101815.84;4864541;29;20527;-67
2023/10/01 01:49:19;;;;;;;0.80;0.40;;;;;;;14.65;87.51;101816.66;4860188;29;20422;-68
2023/10/01 01:51:59;;;;;;;0.80;0.40;;;;;;;14.60;87.00;101817.28;4866227;29;20478;-69
2023/10/01 01:54:34;;;;;;;0.80;0.50;;;;;;;14.69;86.35;101807.03;4861129;29;20493;-69
2023/10/01 01:57:03;;;;;;;0.80;0.50;;;;;;;14.70;86.41;101803.25;4865926;29;20402;-68
2023/10/01 01:59:33;;;;;;;1.90;0.70;;;;;;;14.68;86.67;101795.28;4866827;29;20440;-69
2023/10/01 02:02:05;;;;;;;0.80;0.50;;;;;;;14.76;86.37;101797.81;4865320;29;20446;-68
2023/10/01 02:04:34;;;;;;;0.80;0.50;;;;;;;14.77;85.48;101798.66;4868085;29;20468;-69
2023/10/01 02:07:03;;;;;;;0.80;0.50;;;;;;;14.72;85.34;101806.59;4860489;29;20566;-68
2023/10/01 02:09:34;;;;;;;0.90;0.70;;;;;;;14.68;86.39;101805.34;4858738;29;20455;-68
2023/10/01 02:12:23;;;;;;;0.80;0.50;;;;;;;14.82;86.16;101801.59;4868617;29;20491;-69
2023/10/01 02:14:54;;;;;;;0.80;0.40;;;;;;;14.84;85.04;101809.56;4862946;29;20399;-68
2023/10/01 02:17:29;;;;;;;1.67;1.57;;;;;;;14.75;84.68;101800.75;4860504;29;20419;-68
2023/10/01 02:20:00;;;;;;;0.80;0.50;;;;;;;14.72;85.16;101796.56;4864289;29;20456;-68
2023/10/01 02:22:31;;;;;;;0.80;0.40;;;;;;;14.77;84.14;101804.09;4864230;29;20449;-69
2023/10/01 02:25:06;;;;;;;0.80;0.40;;;;;;;14.75;85.04;101795.31;4860869;29;20476;-69
2023/10/01 02:27:43;;;;;;;1.10;1.00;;;;;;;14.84;84.08;101793.22;4855007;29;20972;-68
2023/10/01 02:30:21;;;;;;;0.80;0.50;;;;;;;14.82;84.86;101798.88;4855771;29;20432;-69
2023/10/01 02:33:15;;;;;;;0.80;0.40;;;;;;;14.74;85.44;101793.63;4855471;29;20467;-69
2023/10/01 02:35:41;;;;;;;1.13;1.03;;;;;;;14.78;84.48;101793.00;4856357;29;20939;-68
2023/10/01 02:40:57;;;;;;;0.80;0.40;;;;;;;14.74;85.12;101780.00;4864913;29;20986;-68
2023/10/01 02:43:33;;;;;;;0.90;0.60;;;;;;;14.83;84.32;101770.56;4861970;29;20489;-68
2023/10/01 02:46:04;;;;;;;0.90;0.73;;;;;;;14.80;83.50;101771.00;4872286;29;20431;-68
2023/10/01 02:48:34;;;;;;;1.37;0.57;;;;;;;14.65;84.01;101771.19;4861478;29;20469;-69
2023/10/01 02:51:14;;;;;;;0.80;0.40;;;;;;;14.65;84.21;101768.47;4863979;29;20484;-68
2023/10/01 02:54:01;;;;;;;0.80;0.50;;;;;;;14.68;84.88;101768.06;4860660;29;20427;-68
2023/10/01 02:56:34;;;;;;;1.57;1.27;;;;;;;14.54;85.09;101762.78;4860731;29;20525;-68
2023/10/01 02:59:09;;;;;;;0.80;0.40;;;;;;;14.62;84.94;101762.63;4860113;29;20435;-67
2023/10/01 03:01:38;;;;;;;0.80;0.40;;;;;;;14.58;84.95;101769.50;4867460;29;20551;-66
2023/10/01 03:04:10;;;;;;;0.80;0.40;;;;;;;14.56;85.13;101768.88;4864044;29;20480;-67
2023/10/01 03:06:47;;;;;;;1.00;0.80;;;;;;;14.69;83.73;101774.34;4860905;29;20420;-68
2023/10/01 03:09:31;;;;;;;0.80;0.40;;;;;;;14.59;84.72;101768.47;4865701;29;20809;-67
2023/10/01 03:15:16;;;;;;;1.67;0.83;;;;;;;14.65;84.28;101773.94;4855710;29;20426;-68
2023/10/01 03:17:56;;;;;;;0.80;0.53;;;;;;;14.56;84.74;101769.72;4857232;29;20978;-68
2023/10/01 03:24:02;;;;;;;1.13;0.60;;;;;;;14.56;84.73;101774.34;4856770;29;21062;-66
2023/10/01 03:26:33;;;;;;;1.07;0.97;;;;;;;14.60;85.00;101775.59;4861306;29;20399;-69
2023/10/01 03:29:17;;;;;;;0.80;0.40;;;;;;;14.60;84.67;101775.59;4853112;29;20414;-66
2023/10/01 03:31:46;;;;;;;0.90;0.50;;;;;;;14.56;85.33;101779.78;4854805;29;20460;-68
2023/10/01 03:34:28;;;;;;;0.80;0.50;;;;;;;14.50;85.36;101778.72;4870824;29;20431;-68
2023/10/01 03:37:00;;;;;;;0.80;0.50;;;;;;;14.53;85.47;101788.34;4863752;29;20958;-69
2023/10/01 03:39:35;;;;;;;0.80;0.40;;;;;;;14.60;85.40;101791.94;4860357;29;20902;-68
2023/10/01 03:42:17;;;;;;;0.80;0.40;;;;;;;14.67;85.13;101798.22;4861639;29;20430;-68
2023/10/01 03:47:50;;;;;;;0.90;0.60;;;;;;;14.65;85.17;101778.53;4863895;29;20515;-68
2023/10/01 03:50:21;;;;;;;0.80;0.40;;;;;;;14.67;85.62;101776.41;4863901;29;20912;-68
2023/10/01 03:52:52;;;;;;;2.13;0.70;;;;;;;14.75;83.75;101779.81;4862880;29;20418;-67
2023/10/01 03:55:28;;;;;;;1.10;0.60;;;;;;;14.65;84.50;101786.69;4862887;29;20440;-67
2023/10/01 03:58:06;;;;;;;0.90;0.50;;;;;;;14.59;84.82;101780.19;4868884;29;20993;-67
2023/10/01 04:00:41;;;;;;;0.80;0.40;;;;;;;14.56;85.56;101779.78;4863528;29;20436;-68
2023/10/01 04:03:13;;;;;;;0.80;0.50;;;;;;;14.61;84.58;101771.81;4859220;29;20460;-67
2023/10/01 04:05:45;;;;;;;0.80;0.40;;;;;;;14.57;85.47;101765.13;4867608;29;20459;-67
2023/10/01 04:08:14;;;;;;;0.80;0.40;;;;;;;14.53;85.80;101763.81;4879576;29;20439;-68
2023/10/01 04:10:47;;;;;;;0.80;0.40;;;;;;;14.56;85.81;101758.81;4862654;29;20836;-67
2023/10/01 04:13:21;;;;;;;0.80;0.50;;;;;;;14.54;85.13;101760.91;4865291;29;20429;-68
2023/10/01 04:15:56;;;;;;;0.80;0.40;;;;;;;14.48;86.00;101761.72;4857628;29;21000;-68
2023/10/01 04:18:28;;;;;;;0.83;0.60;;;;;;;14.42;86.43;101761.72;4868242;29;20777;-68
2023/10/01 04:23:51;;;;;;;0.80;0.50;;;;;;;14.40;86.01;101755.66;4856967;29;20813;-68
2023/10/01 04:26:20;;;;;;;0.80;0.50;;;;;;;14.34;86.69;101760.84;4870074;29;20448;-67
2023/10/01 04:28:50;;;;;;;0.80;0.50;;;;;;;14.30;87.14;101764.19;4862378;29;20419;-67
2023/10/01 04:31:42;;;;;;;0.90;0.67;;;;;;;14.38;87.25;101765.91;4866784;29;21021;-67
2023/10/01 04:34:11;;;;;;;0.80;0.40;;;;;;;14.41;86.33;101762.78;4862229;29;20434;-67
2023/10/01 04:36:42;;;;;;;0.80;0.50;;;;;;;14.54;85.35;101762.78;4861472;29;20483;-68
2023/10/01 04:39:12;;;;;;;0.90;0.60;;;;;;;14.49;85.86;101773.47;4864211;29;20865;-67
2023/10/01 04:41:41;;;;;;;0.80;0.50;;;;;;;14.56;86.09;101777.06;4876725;29;20512;-66
2023/10/01 04:44:13;;;;;;;0.90;0.50;;;;;;;14.57;85.36;101782.28;4869658;29;20527;-68
2023/10/01 04:46:45;;;;;;;0.80;0.50;;;;;;;14.53;86.24;101774.72;4866696;29;20705;-68
2023/10/01 04:49:41;;;;;;;1.73;0.60;;;;;;;14.50;86.38;101773.28;4871145;29;20921;-69
2023/10/01 04:52:12;;;;;;;2.23;0.97;;;;;;;14.56;86.52;101777.06;4860774;29;20458;-69
2023/10/01 04:54:44;;;;;;;0.80;0.60;;;;;;;14.52;85.76;101773.91;4867242;29;20411;-70
2023/10/01 04:57:14;;;;;;;0.80;0.50;;;;;;;14.56;85.45;101774.34;4862350;29;20427;-69
2023/10/01 04:59:56;;;;;;;1.20;0.60;;;;;;;14.60;85.79;101775.59;4867126;29;20402;-68
2023/10/01 05:02:29;;;;;;;1.80;0.97;;;;;;;14.62;84.64;101787.13;4863324;29;20464;-68
2023/10/01 05:05:09;;;;;;;0.80;0.50;;;;;;;14.60;84.89;101776.44;4872078;29;20538;-67
2023/10/01 05:07:39;;;;;;;0.80;0.50;;;;;;;14.67;84.59;101776.41;4870146;29;20410;-68
2023/10/01 05:10:09;;;;;;;0.80;0.50;;;;;;;14.62;84.48;101768.06;4862410;29;20423;-67
2023/10/01 05:12:43;;;;;;;0.90;0.47;;;;;;;14.71;84.04;101772.25;4869222;29;20783;-67
2023/10/01 05:15:21;;;;;;;0.80;0.60;;;;;;;14.69;83.94;101780.63;4863826;29;20428;-67
2023/10/01 05:17:55;;;;;;;0.80;0.50;;;;;;;14.67;83.68;101784.59;4852623;29;20484;-68
2023/10/01 05:20:26;;;;;;;0.80;0.50;;;;;;;14.76;83.33;101781.47;4864549;29;20423;-68
2023/10/01 05:22:58;;;;;;;0.80;0.40;;;;;;;14.79;82.23;101781.06;4861410;29;20501;-68
2023/10/01 05:25:31;;;;;;;1.03;0.80;;;;;;;14.85;81.92;101787.56;4862651;29;20446;-69
2023/10/01 05:28:03;;;;;;;0.90;0.60;;;;;;;14.80;81.95;101784.63;4866389;29;20497;-68
2023/10/01 05:30:38;;;;;;;0.80;0.50;;;;;;;14.87;81.83;101782.72;4868515;29;20908;-67
2023/10/01 05:33:11;;;;;;;1.50;0.60;;;;;;;14.87;81.88;101782.72;4870106;29;20812;-69
2023/10/01 05:35:44;;;;;;;0.90;0.50;;;;;;;15.00;81.13;101782.75;4854741;29;20465;-68
2023/10/01 05:38:14;;;;;;;0.80;0.40;;;;;;;14.96;81.26;101781.47;4865122;29;20417;-68
2023/10/01 05:40:45;;;;;;;0.80;0.47;;;;;;;15.04;81.22;101786.72;4861137;29;20995;-69
2023/10/01 05:43:14;;;;;;;0.80;0.50;;;;;;;15.03;81.15;101782.31;4856433;29;20956;-68
2023/10/01 05:45:50;;;;;;;2.70;1.63;;;;;;;15.12;80.32;101786.50;4866322;29;20457;-68
2023/10/01 05:48:23;;;;;;;1.10;0.50;;;;;;;15.10;80.51;101785.06;4861219;29;20411;-68
2023/10/01 05:50:53;;;;;;;0.90;0.50;;;;;;;15.10;80.84;101785.88;4867283;29;20508;-68
2023/10/01 05:53:22;;;;;;;1.00;0.60;;;;;;;15.15;80.86;101786.06;4864349;29;20414;-68
2023/10/01 05:55:51;;;;;;;0.80;0.40;;;;;;;15.32;79.89;101770.13;4870582;29;20432;-69
2023/10/01 05:58:21;;;;;;;1.17;0.90;;;;;;;15.42;79.08;101764.25;4860897;29;20436;-68
2023/10/01 06:01:05;;;;;;;0.80;0.50;;;;;;;15.55;78.32;101767.81;4864448;29;20460;-68
2023/10/01 06:03:40;;;;;;;0.90;0.60;;;;;;;15.57;78.51;101767.59;4862870;29;20423;-68
2023/10/01 06:06:13;;;;;;;0.80;0.50;;;;;;;15.69;77.80;101771.31;4856133;29;20992;-68
2023/10/01 06:08:46;;;;;;;1.03;0.60;;;;;;;15.74;77.11;101774.25;4865041;29;20528;-67
2023/10/01 06:11:16;;;;;;;0.80;0.40;;;;;;;15.86;76.46;101767.09;4870899;29;20997;-69
2023/10/01 06:13:51;;;;;;;1.17;1.07;;;;;;;15.92;76.72;101766.22;4862297;29;20436;-68
2023/10/01 06:16:23;;;;;;;1.33;1.23;;;;;;;16.06;75.96;101767.00;4869252;29;20435;-69
2023/10/01 06:18:58;;;;;;;0.80;0.40;;;;;;;16.27;74.93;101779.47;4860416;29;20442;-69
2023/10/01 06:21:31;;;;;;;1.10;0.57;;;;;;;16.31;74.76;101767.09;4860800;29;20438;-67
2023/10/01 06:24:04;;;;;;;1.40;0.90;;;;;;;16.39;74.27;101764.09;4860171;29;20435;-70
2023/10/01 06:26:36;;;;;;;1.50;1.40;;;;;;;16.44;73.62;101764.28;4861177;29;20446;-69
2023/10/01 06:29:07;;;;;;;1.17;1.07;;;;;;;16.69;72.52;101773.38;4865141;29;20426;-69
2023/10/01 06:31:52;;;;;;;0.80;0.40;;;;;;;16.64;72.18;101773.22;4862018;29;20853;-69
2023/10/01 06:34:26;;;;;;;0.80;0.40;;;;;;;16.63;72.87;101771.53;4869142;29;20487;-70
2023/10/01 06:40:50;;;;;;;0.90;0.60;;;;;;;16.80;71.78;101780.84;4867884;29;20452;-68
2023/10/01 06:43:20;;;;;;;1.10;0.90;;;;;;;16.68;71.02;101781.78;4859955;29;20410;-69
2023/10/01 06:45:49;;;;;;;0.80;0.40;;;;;;;16.59;72.06;101778.50;4855711;29;20467;-68
2023/10/01 06:48:24;;;;;;;0.80;0.50;;;;;;;16.63;72.08;101768.81;4855169;29;20426;-69
2023/10/01 06:50:55;;;;;;;0.90;0.70;;;;;;;16.68;71.21;101768.97;4859808;29;20494;-68
2023/10/01 06:53:43;;;;;;;0.80;0.40;;;;;;;16.64;71.23;101766.91;4861612;29;20812;-67
2023/10/01 06:56:14;;;;;;;0.93;0.77;;;;;;;16.63;71.79;101776.16;4864580;29;20409;-68
2023/10/01 06:59:09;;;;;;;0.90;0.53;;;;;;;16.57;72.80;101769.63;4860503;29;20944;-68
2023/10/01 07:01:42;;;;;;;0.97;0.70;;;;;;;16.61;71.73;101764.59;4859255;29;20495;-68
2023/10/01 07:04:12;;;;;;;0.80;0.40;;;;;;;16.63;71.73;101774.25;4855618;29;20410;-70
2023/10/01 07:06:44;;;;;;;0.80;0.60;;;;;;;16.61;71.92;101786.47;4861364;29;20542;-69
2023/10/01 07:09:27;;;;;;;1.10;0.90;;;;;;;16.56;71.94;101778.03;4862877;29;20488;-68
2023/10/01 07:11:58;;;;;;;1.37;0.77;;;;;;;16.66;71.73;101790.22;4859677;29;20946;-69
2023/10/01 07:14:38;;;;;;;1.00;0.83;;;;;;;16.75;71.03;101788.06;4860029;29;20692;-68
2023/10/01 07:17:09;;;;;;;0.90;0.60;;;;;;;17.01;70.36;101792.47;4865947;29;20432;-66
2023/10/01 07:19:38;;;;;;;0.80;0.50;;;;;;;17.15;69.56;101799.50;4864458;29;20436;-68
2023/10/01 07:22:09;;;;;;;0.90;0.60;;;;;;;17.17;69.21;101790.03;4865360;29;20562;-68
2023/10/01 07:24:38;;;;;;;0.90;0.50;;;;;;;17.22;68.77;101801.13;4862745;29;20446;-67
2023/10/01 07:27:11;;;;;;;0.80;0.50;;;;;;;17.08;68.88;101798.75;4864611;29;20559;-69
2023/10/01 07:29:42;;;;;;;0.80;0.40;;;;;;;17.15;69.13;101796.78;4865451;29;20440;-68
2023/10/01 07:32:13;;;;;;;1.00;0.80;;;;;;;17.05;69.28;101793.69;4868867;29;20445;-67
2023/10/01 07:34:48;;;;;;;0.87;0.57;;;;;;;17.04;69.57;101790.13;4865684;29;20439;-68
2023/10/01 07:37:25;;;;;;;1.00;0.73;;;;;;;17.01;70.35;101797.94;4864169;29;20563;-69
2023/10/01 07:39:59;;;;;;;0.90;0.50;;;;;;;17.00;69.50;101802.56;4866836;29;20495;-69
2023/10/01 07:42:28;;;;;;;0.80;0.40;;;;;;;17.02;69.21;101810.56;4865979;29;20478;-68
2023/10/01 07:44:58;;;;;;;0.90;0.50;;;;;;;17.09;69.11;101811.38;4861151;29;20410;-68
2023/10/01 07:47:31;;;;;;;0.90;0.50;;;;;;;16.97;68.87;101808.50;4867188;29;20510;-67
2023/10/01 07:50:02;;;;;;;1.63;1.53;;;;;;;17.05;68.77;101821.03;4860210;29;20486;-68
2023/10/01 07:52:36;;;;;;;0.90;0.50;;;;;;;17.30;68.01;101819.16;4862146;29;20449;-67
2023/10/01 07:55:29;;;;;;;0.90;0.50;;;;;;;17.63;66.76;101814.22;4864737;29;20529;-68
2023/10/01 07:58:18;;;;;;;1.57;0.93;;;;;;;18.16;65.10;101805.38;4862179;29;20435;-69
2023/10/01 08:00:47;;;;;;;1.20;0.73;;;;;;;18.60;63.11;101802.28;4861622;29;20548;-68
2023/10/01 08:03:32;;;;;;;0.90;0.50;;;;;;;18.92;61.71;101796.53;4863420;29;20432;-68
2023/10/01 08:06:16;;;;;;;0.90;0.50;;;;;;;18.87;61.04;101799.16;4865531;29;20414;-68
2023/10/01 08:08:48;;;;;;;1.10;1.00;;;;;;;18.67;62.06;101788.50;4868921;29;20480;-67
2023/10/01 08:14:00;;;;;;;1.10;0.73;;;;;;;18.82;61.19;101796.28;4865864;29;20443;-68
2023/10/01 08:16:28;;;;;;;0.90;0.40;;;;;;;18.92;61.59;101793.81;4870189;29;20436;-68
2023/10/01 08:18:58;;;;;;;1.00;0.80;;;;;;;19.13;60.82;101786.88;4858034;29;20486;-68
2023/10/01 08:21:37;;;;;;;1.20;0.73;;;;;;;19.24;60.85;101780.59;4865236;29;20498;-68
2023/10/01 08:24:09;;;;;;;0.90;0.60;;;;;;;19.38;60.25;101795.75;4868564;29;20462;-67
2023/10/01 08:26:43;;;;;;;1.00;0.60;;;;;;;19.32;60.29;101788.44;4860547;29;20439;-68
2023/10/01 08:29:15;;;;;;;1.77;0.60;;;;;;;18.85;61.06;101796.63;4861201;29;20497;-68
2023/10/01 08:34:28;;;;;;;1.27;0.90;;;;;;;18.80;62.01;101799.25;4868245;29;20444;-69
2023/10/01 08:36:57;;;;;;;0.90;0.57;;;;;;;18.96;61.73;101798.56;4859598;29;20439;-67
2023/10/01 08:39:35;;;;;;;1.30;0.97;;;;;;;19.24;61.45;101799.78;4863524;29;20415;-68
2023/10/01 08:42:08;;;;;;;1.00;0.77;;;;;;;19.15;60.63;101802.06;4856208;29;20484;-68
2023/10/01 08:44:49;;;;;;;1.20;0.60;;;;;;;19.24;60.85;101800.63;4862924;29;20890;-68
2023/10/01 08:47:27;;;;;;;0.90;0.50;;;;;;;19.14;61.58;101797.63;4874648;29;20449;-68
2023/10/01 08:49:57;;;;;;;0.90;0.40;;;;;;;19.25;61.53;101810.53;4865091;29;20415;-69
2023/10/01 08:52:30;;;;;;;1.33;0.70;;;;;;;19.24;61.44;101806.13;4860577;29;20492;-68
2023/10/01 08:55:02;;;;;;;0.90;0.50;;;;;;;19.32;60.32;101807.66;4861802;29;20463;-68
2023/10/01 08:57:45;;;;;;;2.33;0.80;;;;;;;19.32;61.00;101818.63;4862658;29;20396;-69
2023/10/01 09:00:20;;;;;;;1.30;0.90;;;;;;;19.33;60.53;101809.34;4861747;29;20440;-69
2023/10/01 09:02:53;;;;;;;0.90;0.50;;;;;;;18.82;61.70;101807.25;4858021;29;20484;-67
2023/10/01 09:05:27;;;;;;;0.90;0.40;;;;;;;18.65;62.62;101812.56;4862172;29;20467;-68
2023/10/01 09:10:53;;;;;;;1.00;0.67;;;;;;;18.99;62.33;101808.22;4858423;29;20456;-68
2023/10/01 09:13:23;;;;;;;0.97;0.60;;;;;;;19.02;61.90;101802.28;4857897;29;20458;-69
2023/10/01 09:15:55;;;;;;;0.90;0.60;;;;;;;19.21;61.09;101812.09;4862155;29;20531;-67
2023/10/01 09:18:27;;;;;;;1.40;1.27;;;;;;;19.24;61.31;101806.13;4863528;29;20435;-67
2023/10/01 09:21:06;;;;;;;1.00;0.70;;;;;;;19.17;60.71;101813.63;4863372;29;20503;-68
2023/10/01 09:26:42;;;;;;;1.07;0.80;;;;;;;19.34;60.84;101811.03;4858918;29;20449;-68
2023/10/01 09:29:24;;;;;;;1.73;0.60;;;;;;;19.71;59.09;101812.47;4860255;29;20427;-67
2023/10/01 09:31:56;;;;;;;1.93;1.50;;;;;;;19.95;59.72;101818.75;4856635;29;20547;-68
2023/10/01 09:34:33;;;;;;;0.90;0.50;;;;;;;19.84;59.23;101814.13;4864907;29;20415;-68
2023/10/01 09:37:04;;;;;;;1.00;0.60;;;;;;;19.85;58.51;101802.03;4860050;29;20519;-68
2023/10/01 09:39:44;;;;;;;1.10;0.80;;;;;;;19.92;59.00;101798.09;4859523;29;20767;-68
2023/10/01 09:42:24;;;;;;;0.90;0.60;;;;;;;20.10;57.86;101791.59;4859453;29;20588;-68
2023/10/01 09:44:54;;;;;;;1.00;0.60;;;;;;;20.10;58.96;101783.34;4878307;29;20419;-69
2023/10/01 09:47:25;;;;;;;0.90;0.50;;;;;;;20.55;58.08;101779.88;4866299;29;20461;-68
2023/10/01 09:49:55;;;;;;;2.20;1.67;;;;;;;20.36;56.40;101777.31;4864711;29;20434;-68
2023/10/01 09:52:30;;;;;;;1.10;0.87;;;;;;;20.46;57.52;101787.69;4874673;29;20529;-69
2023/10/01 09:55:07;;;;;;;1.10;0.70;;;;;;;20.87;56.26;101782.91;4866948;29;20503;-68
2023/10/01 09:57:39;;;;;;;1.30;0.60;;;;;;;21.05;55.64;101785.44;4860743;29;20774;-69
2023/10/01 10:00:21;;;;;;;0.90;0.50;;;;;;;20.53;55.90;101782.84;4863840;29;20437;-69
2023/10/01 10:02:53;;;;;;;0.90;0.50;;;;;;;20.59;56.54;101786.53;4867216;29;20831;-68
2023/10/01 10:05:28;;;;;;;0.90;0.40;;;;;;;20.45;57.47;101786.00;4875355;29;20428;-69
2023/10/01 10:08:13;;;;;;;1.07;0.97;;;;;;;20.56;57.05;101793.38;4863961;29;20501;-68
2023/10/01 10:10:49;;;;;;;2.50;0.80;;;;;;;20.49;57.03;101791.84;4866066;29;20488;-67
2023/10/01 10:13:45;;;;;;;1.47;0.93;;;;;;;20.86;55.68;101787.59;4861743;29;20443;-69
2023/10/01 10:16:31;;;;;;;0.90;0.40;;;;;;;20.87;55.89;101788.41;4867856;29;20431;-68
2023/10/01 10:19:09;;;;;;;1.43;0.73;;;;;;;20.92;55.45;101792.06;4859827;29;20457;-69
2023/10/01 10:22:25;;;;;;;1.00;0.60;;;;;;;21.02;55.28;101797.75;4860025;29;20474;-68
2023/10/01 10:25:25;;;;;;;1.37;0.93;;;;;;;21.09;55.14;101803.94;4859189;29;20854;-67
2023/10/01 10:27:56;;;;;;;1.20;0.70;;;;;;;20.44;55.65;101797.25;4864051;29;20832;-68
2023/10/01 10:30:27;;;;;;;0.90;0.43;;;;;;;20.57;55.99;101795.06;4861842;29;20975;-69
2023/10/01 10:33:29;;;;;;;1.00;0.70;;;;;;;20.77;55.63;101794.56;4874209;29;20411;-68
2023/10/01 10:36:51;;;;;;;0.90;0.40;;;;;;;20.27;56.82;101798.00;4855741;29;20457;-68
2023/10/01 10:40:02;;;;;;;1.00;0.70;;;;;;;20.29;57.18;101793.09;4864783;29;20481;-69
2023/10/01 10:42:33;;;;;;;1.03;0.60;;;;;;;20.54;56.60;101792.78;4863021;29;20473;-69
2023/10/01 10:45:22;;;;;;;1.00;0.60;;;;;;;20.41;55.64;101789.50;4864503;29;20468;-68
2023/10/01 10:48:01;;;;;;;0.90;0.40;;;;;;;20.37;56.12;101790.00;4868519;29;20588;-68
2023/10/01 10:50:49;;;;;;;0.90;0.50;;;;;;;20.35;56.77;101775.66;4862413;29;20955;-68
2023/10/01 10:53:22;;;;;;;0.90;0.47;;;;;;;20.77;55.90;101784.38;4864305;29;20407;-69
2023/10/01 10:55:52;;;;;;;2.13;1.03;;;;;;;20.88;54.77;101790.91;4858057;29;20438;-69
2023/10/01 10:58:24;;;;;;;1.30;0.60;;;;;;;21.04;54.76;101784.59;4860733;29;20442;-69
2023/10/01 11:00:55;;;;;;;0.90;0.50;;;;;;;21.32;54.03;101785.59;4860146;29;20470;-68
2023/10/01 11:03:41;;;;;;;2.43;1.00;;;;;;;21.45;53.15;101788.81;4866864;29;20992;-69
2023/10/01 11:06:18;;;;;;;1.33;0.90;;;;;;;21.24;53.75;101784.97;4859194;29;20976;-68
2023/10/01 11:08:51;;;;;;;1.30;0.70;;;;;;;21.23;54.29;101777.78;4860113;29;20803;-68
2023/10/01 11:11:25;;;;;;;1.97;1.10;;;;;;;21.10;53.62;101777.25;4864224;29;20453;-67
2023/10/01 11:14:15;;;;;;;0.90;0.50;;;;;;;21.15;51.69;101785.63;4862451;29;20951;-67
2023/10/01 11:16:47;;;;;;;1.90;1.80;;;;;;;20.95;52.12;101779.75;4861939;29;20402;-67
2023/10/01 11:19:25;;;;;;;1.27;0.87;;;;;;;20.81;52.54;101771.84;4866311;29;20411;-68
2023/10/01 11:21:58;;;;;;;0.90;0.40;;;;;;;20.60;52.19;101763.47;4861654;29;20460;-69
2023/10/01 11:24:39;;;;;;;0.90;0.50;;;;;;;20.38;53.17;101775.16;4867756;29;20934;-68
2023/10/01 11:27:20;;;;;;;1.00;0.60;;;;;;;20.23;53.76;101765.75;4865107;29;20455;-69
2023/10/01 11:30:12;;;;;;;0.90;0.40;;;;;;;20.23;53.61;101754.78;4856089;29;20906;-67
2023/10/01 11:33:01;;;;;;;0.90;0.50;;;;;;;20.23;53.99;101754.78;4858416;29;20436;-68
2023/10/01 11:35:35;;;;;;;1.13;0.70;;;;;;;20.43;54.34;101762.59;4868478;29;20428;-67
2023/10/01 11:38:10;;;;;;;1.00;0.50;;;;;;;20.91;53.21;101762.09;4854309;29;20450;-69
2023/10/01 11:43:33;;;;;;;1.03;0.73;;;;;;;21.56;51.33;101751.25;4863866;29;20455;-69
2023/10/01 11:46:19;;;;;;;1.00;0.50;;;;;;;21.51;50.57;101757.53;4865318;29;20494;-68
2023/10/01 11:48:59;;;;;;;0.90;0.50;;;;;;;21.74;50.21;101758.38;4863500;29;20470;-67
2023/10/01 11:51:31;;;;;;;1.17;0.90;;;;;;;22.13;49.48;101753.66;4856167;29;20515;-68
2023/10/01 11:54:09;;;;;;;1.00;0.60;;;;;;;21.81;49.25;101753.53;4862397;29;20472;-68
2023/10/01 11:56:40;;;;;;;1.10;0.80;;;;;;;22.13;48.83;101764.69;4863332;29;20439;-70
2023/10/01 11:59:18;;;;;;;1.00;0.60;;;;;;;22.50;47.12;101762.91;4865101;29;21202;-69
2023/10/01 12:01:49;;;;;;;1.40;1.00;;;;;;;22.65;48.07;101757.53;4864722;29;20475;-67
2023/10/01 12:04:24;;;;;;;0.90;0.40;;;;;;;22.50;47.46;101765.66;4861628;29;20418;-68
2023/10/01 12:06:55;;;;;;;1.10;0.57;;;;;;;22.33;47.63;101770.44;4865088;29;20476;-69
2023/10/01 12:09:25;;;;;;;7.93;0.70;;;;;;;22.13;47.62;101760.00;4866464;29;20474;-69
2023/10/01 12:12:03;;;;;;;1.50;0.70;;;;;;;21.88;48.38;101752.22;4865291;29;20464;-68
2023/10/01 12:14:52;;;;;;;1.00;0.50;;;;;;;22.05;48.24;101758.56;4866153;29;20439;-69
2023/10/01 12:17:24;;;;;;;1.10;0.50;;;;;;;21.88;48.93;101749.47;4866598;29;21003;-68
2023/10/01 12:19:54;;;;;;;0.97;0.67;;;;;;;21.79;49.23;101742.75;4864094;29;20433;-67
2023/10/01 12:22:27;;;;;;;0.90;0.40;;;;;;;21.62;49.86;101755.75;4864720;29;20495;-68
2023/10/01 12:24:57;;;;;;;0.90;0.40;;;;;;;21.89;49.33;101742.03;4857971;29;20453;-69
2023/10/01 12:27:45;;;;;;;1.20;0.57;;;;;;;21.74;49.20;101745.44;4869379;29;20444;-67
2023/10/01 12:30:27;;;;;;;1.07;0.83;;;;;;;21.74;48.65;101739.09;4866701;29;20468;-67
2023/10/01 12:33:00;;;;;;;2.40;0.60;;;;;;;22.06;48.87;101743.69;4867666;29;20781;-68